Sea Sub — WDE5399 — position and weather

sailwx.info

Track history (hours):
 
Tides and Currents Weather Stations Pressure Air Temp Water Temp Dewpoint Dewpoint Depression Visibility Wind Speed Wind Dir Waves Ship Positions

Sea Sub

Owner: Sea Sub Systems, Inc., Indian Rocks Beach, FL. More information available from US FCC via Universal Licensing System and Coast Guard Vessel Documentation Center.

Last reported at 2017-Oct-13 19:43 UTC. Time now 2017-Oct-19 05:30 UTC.
Position N 27°46' W 082°32'.

Length 30 m.

MMSI: 367366150.

Date/timePositionNaut miles runAvg speedWind from/ knotsBaromVisibWave heightAir tempDewpointWater temp
2017-Oct-13 19:43N 27°46' W 082°32'314.7
2017-Oct-13 19:30N 27°47' W 082°30'815.2
2017-Oct-13 19:01N 27°54' W 082°26'2 3.6
2017-Oct-13 18:31N 27°56' W 082°27'0 0.0
2017-Oct-13 18:01N 27°56' W 082°27'1 1.6
2017-Oct-13 17:30N 27°55' W 082°27'1 2.4
2017-Oct-13 17:00N 27°56' W 082°26'1 1.6
2017-Oct-13 16:30N 27°55' W 082°26'1 2.9
2017-Oct-13 16:00N 27°56' W 082°27'0 0.0
2017-Oct-13 15:30N 27°56' W 082°27'0 0.0
2017-Oct-13 15:00N 27°56' W 082°27'0 0.0
2017-Oct-13 14:30N 27°56' W 082°27'0 0.0
2017-Oct-13 14:00N 27°56' W 082°27'1 1.2
2017-Oct-13 13:30N 27°55' W 082°27'1 2.3
2017-Oct-13 13:00N 27°56' W 082°26'0 0.0
2017-Oct-13 12:30N 27°56' W 082°26'0 0.0
2017-Oct-13 12:00N 27°56' W 082°26'0 0.0
2017-Oct-13 11:30N 27°56' W 082°26'611.5
2017-Oct-13 11:00N 27°50' W 082°27'  
2017-Oct-07 19:45N 27°46' W 082°32'414.8
2017-Oct-07 19:30N 27°48' W 082°29'815.1
2017-Oct-07 19:00N 27°55' W 082°26'1 1.8
2017-Oct-07 18:30N 27°54' W 082°25'0 0.8
2017-Oct-07 18:00N 27°54' W 082°26'1 2.7
2017-Oct-07 17:30N 27°56' W 082°26'0 0.0
2017-Oct-07 17:00N 27°56' W 082°26'0 0.0
2017-Oct-07 16:30N 27°56' W 082°26'0 0.0
2017-Oct-07 16:00N 27°56' W 082°26'1 2.1
2017-Oct-07 15:31N 27°55' W 082°27'0 0.0
2017-Oct-07 15:01N 27°55' W 082°27'1 1.6
2017-Oct-07 14:31N 27°54' W 082°26'1 2.9
2017-Oct-07 14:00N 27°56' W 082°26'0 0.0
2017-Oct-07 13:30N 27°56' W 082°26'0 0.0
2017-Oct-07 13:00N 27°56' W 082°26'0 0.0
2017-Oct-07 12:31N 27°56' W 082°26'0 0.0
2017-Oct-07 12:00N 27°56' W 082°26'0 0.0
2017-Oct-07 11:30N 27°56' W 082°26'611.1
2017-Oct-07 11:00N 27°50' W 082°27'6 0.1
2017-Oct-05 15:30N 27°56' W 082°26'1 2.0
2017-Oct-05 15:00N 27°55' W 082°27'0 0.0
2017-Oct-05 14:30N 27°55' W 082°27'1 2.1
2017-Oct-05 14:00N 27°56' W 082°26'0 0.0
2017-Oct-05 13:30N 27°56' W 082°26'1 2.0
2017-Oct-05 13:00N 27°55' W 082°27'0 0.0
2017-Oct-05 12:30N 27°55' W 082°27'1 1.7
2017-Oct-05 12:00N 27°55' W 082°26'0 0.9
2017-Oct-05 11:30N 27°56' W 082°26'713.3
2017-Oct-05 11:00N 27°49' W 082°28'  
Track history (hours):
 
Tides and Currents Weather Stations Pressure Air Temp Water Temp Dewpoint Dewpoint Depression Visibility Wind Speed Wind Dir Waves Ship Positions

Sea Sub

Owner: Sea Sub Systems, Inc., Indian Rocks Beach, FL. More information available from US FCC via Universal Licensing System and Coast Guard Vessel Documentation Center.

Last reported at 2017-Oct-13 19:43 UTC. Time now 2017-Oct-19 05:30 UTC.
Position N 27°46' W 082°32'.

Length 30 m.

MMSI: 367366150.

Date/timePositionNaut miles runAvg speedWind from/ knotsBaromVisibWave heightAir tempDewpointWater temp
2017-Oct-13 19:43N 27°46' W 082°32'314.7
2017-Oct-13 19:30N 27°47' W 082°30'815.2
2017-Oct-13 19:01N 27°54' W 082°26'2 3.6
2017-Oct-13 18:31N 27°56' W 082°27'0 0.0
2017-Oct-13 18:01N 27°56' W 082°27'1 1.6
2017-Oct-13 17:30N 27°55' W 082°27'1 2.4
2017-Oct-13 17:00N 27°56' W 082°26'1 1.6
2017-Oct-13 16:30N 27°55' W 082°26'1 2.9
2017-Oct-13 16:00N 27°56' W 082°27'0 0.0
2017-Oct-13 15:30N 27°56' W 082°27'0 0.0
2017-Oct-13 15:00N 27°56' W 082°27'0 0.0
2017-Oct-13 14:30N 27°56' W 082°27'0 0.0
2017-Oct-13 14:00N 27°56' W 082°27'1 1.2
2017-Oct-13 13:30N 27°55' W 082°27'1 2.3
2017-Oct-13 13:00N 27°56' W 082°26'0 0.0
2017-Oct-13 12:30N 27°56' W 082°26'0 0.0
2017-Oct-13 12:00N 27°56' W 082°26'0 0.0
2017-Oct-13 11:30N 27°56' W 082°26'611.5
2017-Oct-13 11:00N 27°50' W 082°27'  
2017-Oct-07 19:45N 27°46' W 082°32'414.8
2017-Oct-07 19:30N 27°48' W 082°29'815.1
2017-Oct-07 19:00N 27°55' W 082°26'1 1.8
2017-Oct-07 18:30N 27°54' W 082°25'0 0.8
2017-Oct-07 18:00N 27°54' W 082°26'1 2.7
2017-Oct-07 17:30N 27°56' W 082°26'0 0.0
2017-Oct-07 17:00N 27°56' W 082°26'0 0.0
2017-Oct-07 16:30N 27°56' W 082°26'0 0.0
2017-Oct-07 16:00N 27°56' W 082°26'1 2.1
2017-Oct-07 15:31N 27°55' W 082°27'0 0.0
2017-Oct-07 15:01N 27°55' W 082°27'1 1.6
2017-Oct-07 14:31N 27°54' W 082°26'1 2.9
2017-Oct-07 14:00N 27°56' W 082°26'0 0.0
2017-Oct-07 13:30N 27°56' W 082°26'0 0.0
2017-Oct-07 13:00N 27°56' W 082°26'0 0.0
2017-Oct-07 12:31N 27°56' W 082°26'0 0.0
2017-Oct-07 12:00N 27°56' W 082°26'0 0.0
2017-Oct-07 11:30N 27°56' W 082°26'611.1
2017-Oct-07 11:00N 27°50' W 082°27'6 0.1
2017-Oct-05 15:30N 27°56' W 082°26'1 2.0
2017-Oct-05 15:00N 27°55' W 082°27'0 0.0
2017-Oct-05 14:30N 27°55' W 082°27'1 2.1
2017-Oct-05 14:00N 27°56' W 082°26'0 0.0
2017-Oct-05 13:30N 27°56' W 082°26'1 2.0
2017-Oct-05 13:00N 27°55' W 082°27'0 0.0
2017-Oct-05 12:30N 27°55' W 082°27'1 1.7
2017-Oct-05 12:00N 27°55' W 082°26'0 0.9
2017-Oct-05 11:30N 27°56' W 082°26'713.3
2017-Oct-05 11:00N 27°49' W 082°28'  

Dump ship's entire track history